createdAt,value
2022-09-02T00:01:14.954Z,1007.68
2022-09-02T00:06:14.887Z,1007.65
2022-09-02T00:11:14.828Z,1007.63
2022-09-02T00:16:14.811Z,1007.55
2022-09-02T00:21:14.706Z,1007.55
2022-09-02T00:26:14.631Z,1007.51
2022-09-02T00:31:14.575Z,1007.47
2022-09-02T00:36:14.502Z,1007.52
2022-09-02T00:41:14.420Z,1007.42
2022-09-02T00:46:14.431Z,1007.43
2022-09-02T00:51:14.307Z,1007.51
2022-09-02T00:56:14.235Z,1007.45
2022-09-02T01:01:14.265Z,1007.41
2022-09-02T01:06:14.108Z,1007.45
2022-09-02T01:11:14.030Z,1007.41
2022-09-02T01:16:14.005Z,1007.49
2022-09-02T01:21:13.887Z,1007.43
2022-09-02T01:26:13.819Z,1007.40
2022-09-02T01:31:13.822Z,1007.49
2022-09-02T01:36:13.697Z,1007.39
2022-09-02T01:41:13.628Z,1007.46
2022-09-02T01:46:13.588Z,1007.39
2022-09-02T01:51:13.498Z,1007.35
2022-09-02T01:56:13.429Z,1007.40
2022-09-02T02:01:13.447Z,1007.25
2022-09-02T02:06:13.475Z,1007.31
2022-09-02T02:11:13.238Z,1007.29
2022-09-02T02:16:13.248Z,1007.23
2022-09-02T02:21:13.115Z,1007.24
2022-09-02T02:26:13.038Z,1007.21
2022-09-02T02:31:13.038Z,1007.25
2022-09-02T02:36:12.908Z,1007.23
2022-09-02T02:41:12.836Z,1007.25
2022-09-02T02:46:12.857Z,1007.30
2022-09-02T02:51:12.713Z,1007.26
2022-09-02T02:56:12.645Z,1007.27
2022-09-02T03:01:12.618Z,1007.25
2022-09-02T03:06:12.536Z,1007.28
2022-09-02T03:11:12.492Z,1007.23
2022-09-02T03:16:12.405Z,1007.26
2022-09-02T03:21:12.346Z,1007.21
2022-09-02T03:26:12.248Z,1007.20
2022-09-02T03:31:12.210Z,1007.22
2022-09-02T03:36:12.139Z,1007.22
2022-09-02T03:41:12.056Z,1007.22
2022-09-02T03:46:12.051Z,1007.10
2022-09-02T03:51:11.949Z,1007.23
2022-09-02T03:56:11.860Z,1007.17
2022-09-02T04:01:11.858Z,1007.12
2022-09-02T04:06:11.735Z,1007.09
2022-09-02T04:11:11.658Z,1007.17
2022-09-02T04:16:11.661Z,1007.16
2022-09-02T04:21:11.538Z,1007.15
2022-09-02T04:26:11.512Z,1007.19
2022-09-02T04:31:11.491Z,1007.15
2022-09-02T04:36:12.805Z,1007.14
2022-09-02T04:41:11.279Z,1007.27
2022-09-02T04:46:11.291Z,1007.30
2022-09-02T04:51:11.412Z,1007.32
2022-09-02T04:56:11.085Z,1007.26
2022-09-02T05:01:11.076Z,1007.24
2022-09-02T05:06:10.934Z,1007.25
2022-09-02T05:11:10.866Z,1007.21
2022-09-02T05:16:10.877Z,1007.18
2022-09-02T05:21:10.896Z,1007.26
2022-09-02T05:26:10.677Z,1007.23
2022-09-02T05:31:10.628Z,1007.34
2022-09-02T05:36:10.576Z,1007.06
2022-09-02T05:41:10.470Z,1007.21
2022-09-02T05:46:10.530Z,1007.21
2022-09-02T05:51:10.351Z,1007.04
2022-09-02T05:56:10.294Z,1007.08
2022-09-02T06:01:10.216Z,1007.18
2022-09-02T06:06:10.163Z,1007.23
2022-09-02T06:11:10.084Z,1007.23
2022-09-02T06:16:10.090Z,1007.18
2022-09-02T06:21:09.946Z,1007.20
2022-09-02T06:26:10.072Z,1007.15
2022-09-02T06:31:09.875Z,1007.11
2022-09-02T06:36:09.777Z,1007.10
2022-09-02T06:41:09.734Z,1007.05
2022-09-02T06:46:09.698Z,1007.12
2022-09-02T06:51:09.580Z,1007.04
2022-09-02T06:56:09.522Z,1007.04
2022-09-02T07:01:09.485Z,1007.05
2022-09-02T07:06:09.412Z,1007.02
2022-09-02T07:11:09.353Z,1006.98
2022-09-02T07:16:09.369Z,1007.01
2022-09-02T07:21:09.230Z,1006.94
2022-09-02T07:26:09.171Z,1006.95
2022-09-02T07:31:09.439Z,1006.95
2022-09-02T07:36:11.125Z,1006.96
2022-09-02T07:41:09.006Z,1006.90
2022-09-02T07:46:08.984Z,1006.83
2022-09-02T07:51:08.873Z,1006.92
2022-09-02T07:56:08.810Z,1006.89
2022-09-02T08:01:08.867Z,1006.87
2022-09-02T08:06:08.707Z,1006.74
2022-09-02T08:11:08.640Z,1006.77
2022-09-02T08:16:08.669Z,1006.73
2022-09-02T08:21:08.492Z,1006.71
2022-09-02T08:26:08.439Z,1006.64
2022-09-02T08:31:08.370Z,1006.70
2022-09-02T08:36:08.525Z,1006.66
2022-09-02T08:41:08.237Z,1006.53
2022-09-02T08:46:08.287Z,1006.47
2022-09-02T08:51:08.129Z,1006.47
2022-09-02T08:56:08.060Z,1006.31
2022-09-02T09:01:08.067Z,1006.20
2022-09-02T09:06:08.002Z,1006.28
2022-09-02T09:11:07.862Z,1006.22
2022-09-02T09:16:07.852Z,1006.12
2022-09-02T09:21:07.829Z,1006.20
2022-09-02T09:26:07.673Z,1006.15
2022-09-02T09:31:07.598Z,1006.09
2022-09-02T09:36:07.588Z,1006.07
2022-09-02T09:41:07.484Z,1005.92
2022-09-02T09:46:07.477Z,1005.97
2022-09-02T09:51:07.389Z,1005.92
2022-09-02T09:56:07.270Z,1005.92
2022-09-02T10:01:07.239Z,1005.88
2022-09-02T10:06:07.171Z,1005.93
2022-09-02T10:11:07.072Z,1005.82
2022-09-02T10:16:07.089Z,1005.82
2022-09-02T10:21:15.762Z,1005.83
2022-09-02T10:26:07.886Z,1005.81
2022-09-02T10:31:06.873Z,1005.83
2022-09-02T10:36:06.766Z,1005.86
2022-09-02T10:41:06.704Z,1005.73
2022-09-02T10:46:06.798Z,1005.76
2022-09-02T10:51:06.548Z,1005.69
2022-09-02T10:56:06.498Z,1005.67
2022-09-02T11:01:06.548Z,1005.66
2022-09-02T11:06:06.395Z,1005.64
2022-09-02T11:11:06.311Z,1005.68
2022-09-02T11:16:06.256Z,1005.55
2022-09-02T11:21:06.163Z,1005.58
2022-09-02T11:26:06.104Z,1005.55
2022-09-02T11:31:06.052Z,1005.45
2022-09-02T11:36:05.985Z,1005.53
2022-09-02T11:46:06.885Z,1005.55
2022-09-02T11:51:05.777Z,1005.45
2022-09-02T11:56:05.708Z,1005.46
2022-09-02T12:01:05.647Z,1005.43
2022-09-02T12:06:05.718Z,1005.46
2022-09-02T12:11:05.499Z,1005.38
2022-09-02T12:16:05.472Z,1005.25
2022-09-02T12:21:05.402Z,1005.22
2022-09-02T12:26:05.313Z,1005.05
2022-09-02T12:31:05.326Z,1005.05
2022-09-02T12:36:05.223Z,1004.99
2022-09-02T12:41:05.161Z,1004.99
2022-09-02T12:46:05.087Z,1004.91
2022-09-02T12:51:05.167Z,1004.95
2022-09-02T12:56:04.907Z,1004.86
2022-09-02T13:01:04.848Z,1004.93
2022-09-02T13:06:04.770Z,1004.96
2022-09-02T13:11:04.738Z,1004.89
2022-09-02T13:16:04.720Z,1004.81
2022-09-02T13:21:04.607Z,1004.77
2022-09-02T13:26:04.544Z,1004.76
2022-09-02T13:31:04.484Z,1004.75
2022-09-02T13:36:04.402Z,1004.66
2022-09-02T13:41:04.348Z,1004.64
2022-09-02T13:46:04.289Z,1004.53
2022-09-02T13:51:04.204Z,1004.58
2022-09-02T13:56:04.165Z,1004.53
2022-09-02T14:01:04.188Z,1004.44
2022-09-02T14:06:04.005Z,1004.36
2022-09-02T14:11:07.803Z,1004.34
2022-09-02T14:16:03.920Z,1004.27
2022-09-02T14:21:03.846Z,1004.26
2022-09-02T14:26:03.857Z,1004.28
2022-09-02T14:31:03.744Z,1004.11
2022-09-02T14:36:03.640Z,1004.26
2022-09-02T14:41:03.559Z,1004.26
2022-09-02T14:46:03.576Z,1004.25
2022-09-02T14:51:03.421Z,1004.24
2022-09-02T14:56:03.352Z,1004.24
2022-09-02T15:01:03.372Z,1004.17
2022-09-02T15:06:03.245Z,1004.19
2022-09-02T15:11:03.625Z,1004.09
2022-09-02T15:16:03.250Z,1004.12
2022-09-02T15:21:03.133Z,1004.13
2022-09-02T15:26:02.965Z,1004.11
2022-09-02T15:31:03.060Z,1004.12
2022-09-02T15:36:02.829Z,1004.11
2022-09-02T15:41:02.769Z,1004.02
2022-09-02T15:46:02.734Z,1003.97
2022-09-02T15:56:03.510Z,1004.02
2022-09-02T16:01:02.554Z,1004.17
2022-09-02T16:06:02.665Z,1004.11
2022-09-02T16:11:02.455Z,1004.04
2022-09-02T16:16:02.380Z,1004.01
2022-09-02T16:21:02.256Z,1004.01
2022-09-02T16:26:02.279Z,1003.96
2022-09-02T16:31:02.213Z,1003.93
2022-09-02T16:36:02.108Z,1003.86
2022-09-02T16:41:02.026Z,1003.76
2022-09-02T16:46:02.001Z,1003.66
2022-09-02T16:51:01.870Z,1003.75
2022-09-02T16:56:01.790Z,1003.69
2022-09-02T17:01:01.780Z,1003.72
2022-09-02T17:06:01.710Z,1003.63
2022-09-02T17:11:01.809Z,1003.63
2022-09-02T17:16:01.529Z,1003.62
2022-09-02T17:21:01.479Z,1003.57
2022-09-02T17:26:01.485Z,1003.63
2022-09-02T17:31:01.387Z,1003.70
2022-09-02T17:36:01.273Z,1003.74
2022-09-02T17:41:01.203Z,1003.71
2022-09-02T17:46:01.213Z,1003.71
2022-09-02T17:51:01.087Z,1003.78
2022-09-02T17:56:01.146Z,1003.87
2022-09-02T18:01:01.030Z,1003.85
2022-09-02T18:06:00.924Z,1003.84
2022-09-02T18:11:00.817Z,1003.88
2022-09-02T18:16:00.864Z,1003.97
2022-09-02T18:21:00.679Z,1003.96
2022-09-02T18:26:00.647Z,1004.00
2022-09-02T18:31:00.612Z,1004.07
2022-09-02T18:36:00.519Z,1004.06
2022-09-02T18:41:00.461Z,1004.06
2022-09-02T18:46:00.427Z,1004.17
2022-09-02T18:51:00.320Z,1004.07
2022-09-02T18:56:00.208Z,1004.09
2022-09-02T19:01:00.338Z,1004.10
2022-09-02T19:06:00.107Z,1004.14
2022-09-02T19:11:00.024Z,1004.12
2022-09-02T19:16:02.618Z,1004.13
2022-09-02T19:20:59.921Z,1004.16
2022-09-02T19:25:59.803Z,1004.20
2022-09-02T19:30:59.774Z,1004.33
2022-09-02T19:35:59.694Z,1004.12
2022-09-02T19:40:59.618Z,1004.22
2022-09-02T19:45:59.590Z,1004.26
2022-09-02T19:50:59.515Z,1004.24
2022-09-02T19:55:59.457Z,1004.22
2022-09-02T20:00:59.515Z,1004.26
2022-09-02T20:05:59.325Z,1004.24
2022-09-02T20:10:59.315Z,1004.26
2022-09-02T20:15:59.263Z,1004.37
2022-09-02T20:20:59.119Z,1004.35
2022-09-02T20:25:59.203Z,1004.33
2022-09-02T20:30:59.105Z,1004.28
2022-09-02T20:35:58.920Z,1004.32
2022-09-02T20:40:58.877Z,1004.26
2022-09-02T20:45:58.767Z,1004.32
2022-09-02T20:50:58.744Z,1004.36
2022-09-02T20:55:58.799Z,1004.37
2022-09-02T21:00:58.787Z,1004.43
2022-09-02T21:05:58.533Z,1004.45
2022-09-02T21:10:58.469Z,1004.49
2022-09-02T21:15:58.469Z,1004.45
2022-09-02T21:20:58.359Z,1004.45
2022-09-02T21:25:58.326Z,1004.48
2022-09-02T21:30:58.238Z,1004.47
2022-09-02T21:35:58.178Z,1004.51
2022-09-02T21:40:58.061Z,1004.50
2022-09-02T21:45:57.992Z,1004.50
2022-09-02T21:50:57.913Z,1004.72
2022-09-02T21:55:57.834Z,1004.67
2022-09-02T22:00:57.828Z,1004.66
2022-09-02T22:05:57.710Z,1004.66
2022-09-02T22:10:57.653Z,1004.64
2022-09-02T22:15:58.094Z,1004.70
2022-09-02T22:20:57.515Z,1004.64
2022-09-02T22:25:57.445Z,1004.58
2022-09-02T22:30:57.450Z,1004.59
2022-09-02T22:35:57.500Z,1004.49
2022-09-02T22:40:57.264Z,1004.40
2022-09-02T22:45:57.187Z,1004.41
2022-09-02T22:50:57.123Z,1004.35
2022-09-02T22:55:57.047Z,1004.49
2022-09-02T23:00:56.985Z,1004.29
2022-09-02T23:05:56.916Z,1004.29
2022-09-02T23:10:56.863Z,1004.30
2022-09-02T23:15:56.852Z,1004.29
2022-09-02T23:20:56.728Z,1004.33
2022-09-02T23:25:56.676Z,1004.23
2022-09-02T23:30:56.654Z,1004.32
2022-09-02T23:35:56.526Z,1004.25
2022-09-02T23:40:56.653Z,1004.20
2022-09-02T23:45:56.467Z,1004.20
2022-09-02T23:50:56.337Z,1004.21
2022-09-02T23:55:56.258Z,1004.24
